sensor_id;sensor_type;location;lat;lon;timestamp;temperature;humidity
44894;DHT22;30625;52.206;21.030;2023-05-10T00:00:57;9.80;78.10
44894;DHT22;30625;52.206;21.030;2023-05-10T00:03:23;9.70;78.50
44894;DHT22;30625;52.206;21.030;2023-05-10T00:05:49;9.70;77.30
44894;DHT22;30625;52.206;21.030;2023-05-10T00:08:14;9.70;78.50
44894;DHT22;30625;52.206;21.030;2023-05-10T00:10:40;9.70;77.70
44894;DHT22;30625;52.206;21.030;2023-05-10T00:13:06;9.60;78.00
44894;DHT22;30625;52.206;21.030;2023-05-10T00:15:32;9.70;78.90
44894;DHT22;30625;52.206;21.030;2023-05-10T00:17:58;9.60;75.60
44894;DHT22;30625;52.206;21.030;2023-05-10T00:20:23;9.50;76.60
44894;DHT22;30625;52.206;21.030;2023-05-10T00:22:49;9.50;77.00
44894;DHT22;30625;52.206;21.030;2023-05-10T00:25:15;9.60;77.80
44894;DHT22;30625;52.206;21.030;2023-05-10T00:27:40;9.50;78.00
44894;DHT22;30625;52.206;21.030;2023-05-10T00:30:07;9.50;78.00
44894;DHT22;30625;52.206;21.030;2023-05-10T00:32:32;9.50;77.50
44894;DHT22;30625;52.206;21.030;2023-05-10T00:34:58;9.50;76.80
44894;DHT22;30625;52.206;21.030;2023-05-10T00:37:24;9.30;74.50
44894;DHT22;30625;52.206;21.030;2023-05-10T00:39:50;9.30;76.40
44894;DHT22;30625;52.206;21.030;2023-05-10T00:42:15;9.20;74.90
44894;DHT22;30625;52.206;21.030;2023-05-10T00:44:41;9.10;74.60
44894;DHT22;30625;52.206;21.030;2023-05-10T00:47:07;9.10;76.00
44894;DHT22;30625;52.206;21.030;2023-05-10T00:49:34;9.00;74.40
44894;DHT22;30625;52.206;21.030;2023-05-10T00:52:00;8.10;74.50
44894;DHT22;30625;52.206;21.030;2023-05-10T00:54:27;9.00;75.10
44894;DHT22;30625;52.206;21.030;2023-05-10T00:56:53;9.00;75.80
44894;DHT22;30625;52.206;21.030;2023-05-10T00:59:19;9.00;74.80
44894;DHT22;30625;52.206;21.030;2023-05-10T01:01:45;9.00;76.20
44894;DHT22;30625;52.206;21.030;2023-05-10T01:04:12;8.90;74.80
44894;DHT22;30625;52.206;21.030;2023-05-10T01:06:42;9.00;76.10
44894;DHT22;30625;52.206;21.030;2023-05-10T01:09:07;9.00;76.30
44894;DHT22;30625;52.206;21.030;2023-05-10T01:11:38;9.00;75.50
44894;DHT22;30625;52.206;21.030;2023-05-10T01:14:05;9.00;77.10
44894;DHT22;30625;52.206;21.030;2023-05-10T01:16:37;9.00;77.70
44894;DHT22;30625;52.206;21.030;2023-05-10T01:19:05;9.00;76.60
44894;DHT22;30625;52.206;21.030;2023-05-10T01:27:45;9.00;76.30
44894;DHT22;30625;52.206;21.030;2023-05-10T01:33:21;8.90;75.90
44894;DHT22;30625;52.206;21.030;2023-05-10T01:38:33;7.40;76.60
44894;DHT22;30625;52.206;21.030;2023-05-10T01:41:13;8.90;78.10
44894;DHT22;30625;52.206;21.030;2023-05-10T01:44:09;8.90;78.70
44894;DHT22;30625;52.206;21.030;2023-05-10T01:46:38;8.80;78.00
44894;DHT22;30625;52.206;21.030;2023-05-10T01:49:26;8.80;77.00
44894;DHT22;30625;52.206;21.030;2023-05-10T01:51:54;8.90;76.80
44894;DHT22;30625;52.206;21.030;2023-05-10T01:54:23;8.90;78.90
44894;DHT22;30625;52.206;21.030;2023-05-10T01:56:55;8.80;78.10
44894;DHT22;30625;52.206;21.030;2023-05-10T01:59:21;8.80;78.10
44894;DHT22;30625;52.206;21.030;2023-05-10T02:01:48;8.70;78.90
44894;DHT22;30625;52.206;21.030;2023-05-10T02:04:16;8.70;77.60
44894;DHT22;30625;52.206;21.030;2023-05-10T02:06:43;8.70;78.70
44894;DHT22;30625;52.206;21.030;2023-05-10T02:09:09;8.60;79.20
44894;DHT22;30625;52.206;21.030;2023-05-10T02:11:38;8.70;79.30
44894;DHT22;30625;52.206;21.030;2023-05-10T02:14:07;8.70;79.70
44894;DHT22;30625;52.206;21.030;2023-05-10T02:16:35;8.60;80.50
44894;DHT22;30625;52.206;21.030;2023-05-10T02:19:02;8.50;79.50
44894;DHT22;30625;52.206;21.030;2023-05-10T02:21:28;8.50;79.90
44894;DHT22;30625;52.206;21.030;2023-05-10T02:23:55;8.50;80.40
44894;DHT22;30625;52.206;21.030;2023-05-10T02:26:24;8.40;79.70
44894;DHT22;30625;52.206;21.030;2023-05-10T02:28:53;8.50;80.50
44894;DHT22;30625;52.206;21.030;2023-05-10T02:31:19;8.10;80.00
44894;DHT22;30625;52.206;21.030;2023-05-10T02:33:46;8.40;81.00
44894;DHT22;30625;52.206;21.030;2023-05-10T02:36:13;8.40;81.10
44894;DHT22;30625;52.206;21.030;2023-05-10T02:38:40;8.40;81.60
44894;DHT22;30625;52.206;21.030;2023-05-10T02:41:08;8.50;81.20
44894;DHT22;30625;52.206;21.030;2023-05-10T02:43:39;8.20;82.30
44894;DHT22;30625;52.206;21.030;2023-05-10T02:46:05;8.30;82.00
44894;DHT22;30625;52.206;21.030;2023-05-10T02:48:31;8.30;83.00
44894;DHT22;30625;52.206;21.030;2023-05-10T02:51:05;8.20;82.70
44894;DHT22;30625;52.206;21.030;2023-05-10T02:53:35;8.30;83.50
44894;DHT22;30625;52.206;21.030;2023-05-10T02:56:05;8.20;83.30
44894;DHT22;30625;52.206;21.030;2023-05-10T02:58:36;8.20;83.70
44894;DHT22;30625;52.206;21.030;2023-05-10T03:01:02;8.20;83.80
44894;DHT22;30625;52.206;21.030;2023-05-10T03:03:28;8.20;83.40
44894;DHT22;30625;52.206;21.030;2023-05-10T03:05:53;8.20;83.70
44894;DHT22;30625;52.206;21.030;2023-05-10T03:08:22;8.20;84.30
44894;DHT22;30625;52.206;21.030;2023-05-10T03:11:05;8.20;84.40
44894;DHT22;30625;52.206;21.030;2023-05-10T03:13:56;8.20;85.10
44894;DHT22;30625;52.206;21.030;2023-05-10T03:16:29;8.10;85.20
44894;DHT22;30625;52.206;21.030;2023-05-10T03:19:10;8.10;85.10
44894;DHT22;30625;52.206;21.030;2023-05-10T03:21:41;8.10;85.70
44894;DHT22;30625;52.206;21.030;2023-05-10T03:24:08;8.10;85.50
44894;DHT22;30625;52.206;21.030;2023-05-10T03:26:37;8.00;85.60
44894;DHT22;30625;52.206;21.030;2023-05-10T03:29:05;8.10;86.00
44894;DHT22;30625;52.206;21.030;2023-05-10T03:31:32;8.00;86.10
44894;DHT22;30625;52.206;21.030;2023-05-10T03:33:58;8.00;86.30
44894;DHT22;30625;52.206;21.030;2023-05-10T03:36:23;8.00;86.50
44894;DHT22;30625;52.206;21.030;2023-05-10T03:38:49;8.00;84.70
44894;DHT22;30625;52.206;21.030;2023-05-10T03:41:15;8.00;84.40
44894;DHT22;30625;52.206;21.030;2023-05-10T03:43:41;8.10;84.50
44894;DHT22;30625;52.206;21.030;2023-05-10T03:46:06;8.10;84.30
44894;DHT22;30625;52.206;21.030;2023-05-10T03:48:33;7.60;83.80
44894;DHT22;30625;52.206;21.030;2023-05-10T03:50:58;8.10;83.70
44894;DHT22;30625;52.206;21.030;2023-05-10T03:53:24;8.20;85.30
44894;DHT22;30625;52.206;21.030;2023-05-10T03:55:50;8.10;83.80
44894;DHT22;30625;52.206;21.030;2023-05-10T03:58:16;8.10;82.70
44894;DHT22;30625;52.206;21.030;2023-05-10T04:00:42;8.20;83.90
44894;DHT22;30625;52.206;21.030;2023-05-10T04:03:10;8.20;82.90
44894;DHT22;30625;52.206;21.030;2023-05-10T04:05:36;8.20;81.40
44894;DHT22;30625;52.206;21.030;2023-05-10T04:08:02;6.90;81.70
44894;DHT22;30625;52.206;21.030;2023-05-10T04:10:28;8.30;78.60
44894;DHT22;30625;52.206;21.030;2023-05-10T04:12:54;8.20;78.20
44894;DHT22;30625;52.206;21.030;2023-05-10T04:15:20;8.20;78.20
44894;DHT22;30625;52.206;21.030;2023-05-10T04:17:46;8.20;78.00
44894;DHT22;30625;52.206;21.030;2023-05-10T04:20:12;8.20;79.60
44894;DHT22;30625;52.206;21.030;2023-05-10T04:22:38;8.20;78.40
44894;DHT22;30625;52.206;21.030;2023-05-10T04:25:04;8.30;79.80
44894;DHT22;30625;52.206;21.030;2023-05-10T04:27:30;8.30;78.40
44894;DHT22;30625;52.206;21.030;2023-05-10T04:29:56;8.30;78.70
44894;DHT22;30625;52.206;21.030;2023-05-10T04:32:22;8.40;78.10
44894;DHT22;30625;52.206;21.030;2023-05-10T04:34:49;8.40;78.90
44894;DHT22;30625;52.206;21.030;2023-05-10T04:37:16;8.50;78.10
44894;DHT22;30625;52.206;21.030;2023-05-10T04:39:41;8.50;77.30
44894;DHT22;30625;52.206;21.030;2023-05-10T04:44:42;8.60;77.30
44894;DHT22;30625;52.206;21.030;2023-05-10T04:47:08;8.70;76.60
44894;DHT22;30625;52.206;21.030;2023-05-10T04:49:34;8.70;76.20
44894;DHT22;30625;52.206;21.030;2023-05-10T04:52:00;8.70;76.60
44894;DHT22;30625;52.206;21.030;2023-05-10T04:54:26;8.80;77.60
44894;DHT22;30625;52.206;21.030;2023-05-10T04:56:52;9.00;76.60
44894;DHT22;30625;52.206;21.030;2023-05-10T04:59:17;9.00;75.60
44894;DHT22;30625;52.206;21.030;2023-05-10T05:01:43;9.10;75.30
44894;DHT22;30625;52.206;21.030;2023-05-10T05:04:09;9.20;74.70
44894;DHT22;30625;52.206;21.030;2023-05-10T05:06:34;9.20;74.50
44894;DHT22;30625;52.206;21.030;2023-05-10T05:09:00;9.30;74.60
44894;DHT22;30625;52.206;21.030;2023-05-10T05:11:26;9.40;75.20
44894;DHT22;30625;52.206;21.030;2023-05-10T05:13:51;9.60;74.20
44894;DHT22;30625;52.206;21.030;2023-05-10T05:16:17;9.60;74.20
44894;DHT22;30625;52.206;21.030;2023-05-10T05:18:43;9.30;74.00
44894;DHT22;30625;52.206;21.030;2023-05-10T05:21:18;9.80;74.00
44894;DHT22;30625;52.206;21.030;2023-05-10T05:23:45;10.10;73.30
44894;DHT22;30625;52.206;21.030;2023-05-10T05:26:11;10.10;72.70
44894;DHT22;30625;52.206;21.030;2023-05-10T05:28:37;10.20;73.30
44894;DHT22;30625;52.206;21.030;2023-05-10T05:31:06;10.30;73.10
44894;DHT22;30625;52.206;21.030;2023-05-10T05:33:35;10.40;71.50
44894;DHT22;30625;52.206;21.030;2023-05-10T05:36:02;10.50;71.30
44894;DHT22;30625;52.206;21.030;2023-05-10T05:38:28;10.50;71.50
44894;DHT22;30625;52.206;21.030;2023-05-10T05:40:54;10.60;73.20
44894;DHT22;30625;52.206;21.030;2023-05-10T05:43:19;10.70;72.60
44894;DHT22;30625;52.206;21.030;2023-05-10T05:45:45;9.60;73.10
44894;DHT22;30625;52.206;21.030;2023-05-10T05:48:11;11.40;71.30
44894;DHT22;30625;52.206;21.030;2023-05-10T05:50:36;11.70;68.80
44894;DHT22;30625;52.206;21.030;2023-05-10T05:53:02;13.40;65.90
44894;DHT22;30625;52.206;21.030;2023-05-10T05:55:28;14.40;64.80
44894;DHT22;30625;52.206;21.030;2023-05-10T05:57:55;15.80;62.20
44894;DHT22;30625;52.206;21.030;2023-05-10T06:00:20;16.70;58.90
44894;DHT22;30625;52.206;21.030;2023-05-10T06:02:47;17.40;57.00
44894;DHT22;30625;52.206;21.030;2023-05-10T06:05:13;17.80;57.30
44894;DHT22;30625;52.206;21.030;2023-05-10T06:07:39;18.00;56.80
44894;DHT22;30625;52.206;21.030;2023-05-10T06:10:08;18.90;55.70
44894;DHT22;30625;52.206;21.030;2023-05-10T06:12:34;18.90;53.00
44894;DHT22;30625;52.206;21.030;2023-05-10T06:15:00;19.00;52.40
44894;DHT22;30625;52.206;21.030;2023-05-10T06:17:26;19.10;52.80
44894;DHT22;30625;52.206;21.030;2023-05-10T06:19:51;19.80;52.10
44894;DHT22;30625;52.206;21.030;2023-05-10T06:22:17;19.60;51.10
44894;DHT22;30625;52.206;21.030;2023-05-10T06:24:43;19.80;52.00
44894;DHT22;30625;52.206;21.030;2023-05-10T06:27:09;20.40;52.80
44894;DHT22;30625;52.206;21.030;2023-05-10T06:29:34;20.40;50.00
44894;DHT22;30625;52.206;21.030;2023-05-10T06:32:00;20.60;50.30
44894;DHT22;30625;52.206;21.030;2023-05-10T06:34:25;20.80;49.50
44894;DHT22;30625;52.206;21.030;2023-05-10T06:36:51;20.10;50.60
44894;DHT22;30625;52.206;21.030;2023-05-10T06:39:17;20.60;51.80
44894;DHT22;30625;52.206;21.030;2023-05-10T06:41:43;20.80;48.70
44894;DHT22;30625;52.206;21.030;2023-05-10T06:44:08;21.00;48.90
44894;DHT22;30625;52.206;21.030;2023-05-10T06:46:34;21.70;48.60
44894;DHT22;30625;52.206;21.030;2023-05-10T06:49:00;21.70;47.60
44894;DHT22;30625;52.206;21.030;2023-05-10T06:51:26;21.40;48.20
44894;DHT22;30625;52.206;21.030;2023-05-10T06:53:51;20.90;47.80
44894;DHT22;30625;52.206;21.030;2023-05-10T06:56:18;22.00;48.50
44894;DHT22;30625;52.206;21.030;2023-05-10T06:58:47;22.10;47.40
44894;DHT22;30625;52.206;21.030;2023-05-10T07:01:13;22.60;49.30
44894;DHT22;30625;52.206;21.030;2023-05-10T07:03:38;22.80;46.90
44894;DHT22;30625;52.206;21.030;2023-05-10T07:06:04;20.50;44.90
44894;DHT22;30625;52.206;21.030;2023-05-10T07:08:31;20.60;47.30
44894;DHT22;30625;52.206;21.030;2023-05-10T07:11:01;19.90;49.80
44894;DHT22;30625;52.206;21.030;2023-05-10T07:13:27;19.20;51.20
44894;DHT22;30625;52.206;21.030;2023-05-10T07:15:55;18.60;52.80
44894;DHT22;30625;52.206;21.030;2023-05-10T07:18:21;18.10;54.30
44894;DHT22;30625;52.206;21.030;2023-05-10T07:20:47;17.60;52.50
44894;DHT22;30625;52.206;21.030;2023-05-10T07:23:12;17.10;52.90
44894;DHT22;30625;52.206;21.030;2023-05-10T07:25:38;15.80;52.10
44894;DHT22;30625;52.206;21.030;2023-05-10T07:28:04;16.10;54.70
44894;DHT22;30625;52.206;21.030;2023-05-10T07:30:30;16.10;54.40
44894;DHT22;30625;52.206;21.030;2023-05-10T07:32:56;15.80;52.30
44894;DHT22;30625;52.206;21.030;2023-05-10T07:35:21;14.30;54.60
44894;DHT22;30625;52.206;21.030;2023-05-10T07:37:47;15.70;53.70
44894;DHT22;30625;52.206;21.030;2023-05-10T07:40:13;15.80;55.90
44894;DHT22;30625;52.206;21.030;2023-05-10T07:42:38;15.80;56.10
44894;DHT22;30625;52.206;21.030;2023-05-10T07:45:04;15.90;51.50
44894;DHT22;30625;52.206;21.030;2023-05-10T07:47:30;15.70;51.50
44894;DHT22;30625;52.206;21.030;2023-05-10T07:49:56;15.80;54.20
44894;DHT22;30625;52.206;21.030;2023-05-10T07:52:22;15.70;51.90
44894;DHT22;30625;52.206;21.030;2023-05-10T07:54:48;15.70;53.20
44894;DHT22;30625;52.206;21.030;2023-05-10T07:57:13;15.80;50.20
44894;DHT22;30625;52.206;21.030;2023-05-10T07:59:40;15.70;52.40
44894;DHT22;30625;52.206;21.030;2023-05-10T08:02:06;15.80;52.90
44894;DHT22;30625;52.206;21.030;2023-05-10T08:04:32;15.90;54.60
44894;DHT22;30625;52.206;21.030;2023-05-10T08:06:57;16.00;52.90
44894;DHT22;30625;52.206;21.030;2023-05-10T08:09:23;15.80;47.90
44894;DHT22;30625;52.206;21.030;2023-05-10T08:11:50;15.80;49.50
44894;DHT22;30625;52.206;21.030;2023-05-10T08:14:16;15.90;51.10
44894;DHT22;30625;52.206;21.030;2023-05-10T08:16:42;15.90;49.60
44894;DHT22;30625;52.206;21.030;2023-05-10T08:19:07;15.90;49.10
44894;DHT22;30625;52.206;21.030;2023-05-10T08:21:33;15.90;48.00
44894;DHT22;30625;52.206;21.030;2023-05-10T08:23:59;15.90;48.70
44894;DHT22;30625;52.206;21.030;2023-05-10T08:26:25;16.00;50.50
44894;DHT22;30625;52.206;21.030;2023-05-10T08:28:51;16.50;48.10
44894;DHT22;30625;52.206;21.030;2023-05-10T08:31:16;16.00;47.20
44894;DHT22;30625;52.206;21.030;2023-05-10T08:33:43;16.00;48.00
44894;DHT22;30625;52.206;21.030;2023-05-10T08:36:09;16.00;46.50
44894;DHT22;30625;52.206;21.030;2023-05-10T08:38:35;16.00;48.00
44894;DHT22;30625;52.206;21.030;2023-05-10T08:41:02;16.20;47.90
44894;DHT22;30625;52.206;21.030;2023-05-10T08:43:29;16.30;46.50
44894;DHT22;30625;52.206;21.030;2023-05-10T08:45:55;16.30;48.00
44894;DHT22;30625;52.206;21.030;2023-05-10T08:48:24;16.40;47.30
44894;DHT22;30625;52.206;21.030;2023-05-10T08:50:53;16.50;48.30
44894;DHT22;30625;52.206;21.030;2023-05-10T08:53:21;16.60;46.00
44894;DHT22;30625;52.206;21.030;2023-05-10T08:55:48;16.50;47.00
44894;DHT22;30625;52.206;21.030;2023-05-10T08:58:14;16.50;48.30
44894;DHT22;30625;52.206;21.030;2023-05-10T09:00:40;16.60;46.50
44894;DHT22;30625;52.206;21.030;2023-05-10T09:03:06;16.70;48.10
44894;DHT22;30625;52.206;21.030;2023-05-10T09:05:32;16.70;47.30
44894;DHT22;30625;52.206;21.030;2023-05-10T09:07:58;16.80;46.90
44894;DHT22;30625;52.206;21.030;2023-05-10T09:10:26;16.80;46.40
44894;DHT22;30625;52.206;21.030;2023-05-10T09:12:53;16.50;46.60
44894;DHT22;30625;52.206;21.030;2023-05-10T09:15:21;16.50;45.40
44894;DHT22;30625;52.206;21.030;2023-05-10T09:17:49;16.40;46.50
44894;DHT22;30625;52.206;21.030;2023-05-10T09:20:14;16.40;46.50
44894;DHT22;30625;52.206;21.030;2023-05-10T09:22:40;16.40;47.50
44894;DHT22;30625;52.206;21.030;2023-05-10T09:27:34;16.60;47.90
44894;DHT22;30625;52.206;21.030;2023-05-10T09:30:00;16.60;46.20
44894;DHT22;30625;52.206;21.030;2023-05-10T09:32:42;16.60;47.80
44894;DHT22;30625;52.206;21.030;2023-05-10T09:35:22;16.60;48.90
44894;DHT22;30625;52.206;21.030;2023-05-10T09:37:54;16.80;48.50
44894;DHT22;30625;52.206;21.030;2023-05-10T09:40:21;16.90;49.00
44894;DHT22;30625;52.206;21.030;2023-05-10T09:45:29;17.10;46.80
44894;DHT22;30625;52.206;21.030;2023-05-10T09:47:56;17.30;45.60
44894;DHT22;30625;52.206;21.030;2023-05-10T09:50:23;17.60;45.70
44894;DHT22;30625;52.206;21.030;2023-05-10T09:52:57;17.90;47.20
44894;DHT22;30625;52.206;21.030;2023-05-10T09:58:00;18.60;44.60
44894;DHT22;30625;52.206;21.030;2023-05-10T10:00:26;18.90;45.90
44894;DHT22;30625;52.206;21.030;2023-05-10T10:02:57;18.90;44.70
44894;DHT22;30625;52.206;21.030;2023-05-10T10:05:34;19.20;44.40
44894;DHT22;30625;52.206;21.030;2023-05-10T10:08:01;19.10;44.10
44894;DHT22;30625;52.206;21.030;2023-05-10T10:10:28;18.70;43.70
44894;DHT22;30625;52.206;21.030;2023-05-10T10:12:54;18.70;46.00
44894;DHT22;30625;52.206;21.030;2023-05-10T10:15:23;18.70;45.10
44894;DHT22;30625;52.206;21.030;2023-05-10T10:17:50;18.60;44.90
44894;DHT22;30625;52.206;21.030;2023-05-10T10:20:18;18.50;45.80
44894;DHT22;30625;52.206;21.030;2023-05-10T10:22:44;18.40;44.00
44894;DHT22;30625;52.206;21.030;2023-05-10T10:25:14;18.20;44.40
44894;DHT22;30625;52.206;21.030;2023-05-10T10:35:58;17.70;45.80
44894;DHT22;30625;52.206;21.030;2023-05-10T10:38:24;18.00;45.60
44894;DHT22;30625;52.206;21.030;2023-05-10T10:41:07;19.60;46.40
44894;DHT22;30625;52.206;21.030;2023-05-10T10:43:33;18.10;45.50
44894;DHT22;30625;52.206;21.030;2023-05-10T10:46:15;18.00;46.30
44894;DHT22;30625;52.206;21.030;2023-05-10T10:48:47;18.20;46.60
44894;DHT22;30625;52.206;21.030;2023-05-10T10:51:14;18.40;43.60
44894;DHT22;30625;52.206;21.030;2023-05-10T10:53:41;18.20;43.20
44894;DHT22;30625;52.206;21.030;2023-05-10T10:58:42;18.50;43.60
44894;DHT22;30625;52.206;21.030;2023-05-10T11:01:19;18.40;43.10
44894;DHT22;30625;52.206;21.030;2023-05-10T11:06:31;18.40;43.90
44894;DHT22;30625;52.206;21.030;2023-05-10T11:09:09;18.40;44.50
44894;DHT22;30625;52.206;21.030;2023-05-10T11:11:36;18.50;43.80
44894;DHT22;30625;52.206;21.030;2023-05-10T11:14:08;18.50;43.40
44894;DHT22;30625;52.206;21.030;2023-05-10T11:16:44;18.60;46.90
44894;DHT22;30625;52.206;21.030;2023-05-10T11:22:11;18.60;43.60
44894;DHT22;30625;52.206;21.030;2023-05-10T11:24:38;18.80;43.20
44894;DHT22;30625;52.206;21.030;2023-05-10T11:27:05;18.80;42.80
44894;DHT22;30625;52.206;21.030;2023-05-10T11:29:31;18.80;43.50
44894;DHT22;30625;52.206;21.030;2023-05-10T11:31:58;18.90;45.10
44894;DHT22;30625;52.206;21.030;2023-05-10T11:34:26;19.00;43.90
44894;DHT22;30625;52.206;21.030;2023-05-10T11:36:54;18.70;43.90
44894;DHT22;30625;52.206;21.030;2023-05-10T11:39:20;18.70;44.20
44894;DHT22;30625;52.206;21.030;2023-05-10T11:41:50;18.70;44.30
44894;DHT22;30625;52.206;21.030;2023-05-10T11:44:16;19.30;45.40
44894;DHT22;30625;52.206;21.030;2023-05-10T11:46:44;18.70;46.00
44894;DHT22;30625;52.206;21.030;2023-05-10T11:49:10;18.70;46.20
44894;DHT22;30625;52.206;21.030;2023-05-10T11:51:37;20.00;45.80
44894;DHT22;30625;52.206;21.030;2023-05-10T11:54:08;19.10;44.60
44894;DHT22;30625;52.206;21.030;2023-05-10T11:56:38;19.30;44.60
44894;DHT22;30625;52.206;21.030;2023-05-10T11:59:04;19.20;45.70
44894;DHT22;30625;52.206;21.030;2023-05-10T12:01:31;19.30;44.70
44894;DHT22;30625;52.206;21.030;2023-05-10T12:03:58;19.30;43.30
44894;DHT22;30625;52.206;21.030;2023-05-10T12:06:30;19.40;42.90
44894;DHT22;30625;52.206;21.030;2023-05-10T12:08:56;19.40;44.70
44894;DHT22;30625;52.206;21.030;2023-05-10T12:11:25;18.30;43.40
44894;DHT22;30625;52.206;21.030;2023-05-10T12:13:51;19.10;42.90
44894;DHT22;30625;52.206;21.030;2023-05-10T12:16:23;19.00;43.20
44894;DHT22;30625;52.206;21.030;2023-05-10T12:18:55;19.20;44.80
44894;DHT22;30625;52.206;21.030;2023-05-10T12:21:21;19.00;43.70
44894;DHT22;30625;52.206;21.030;2023-05-10T12:23:49;19.10;43.50
44894;DHT22;30625;52.206;21.030;2023-05-10T12:26:15;19.10;43.90
44894;DHT22;30625;52.206;21.030;2023-05-10T12:28:41;19.30;44.70
44894;DHT22;30625;52.206;21.030;2023-05-10T12:31:08;19.40;44.40
44894;DHT22;30625;52.206;21.030;2023-05-10T12:33:38;19.30;44.60
44894;DHT22;30625;52.206;21.030;2023-05-10T12:36:05;18.80;43.10
44894;DHT22;30625;52.206;21.030;2023-05-10T12:38:42;19.10;42.50
44894;DHT22;30625;52.206;21.030;2023-05-10T12:41:14;19.20;45.40
44894;DHT22;30625;52.206;21.030;2023-05-10T12:43:40;19.10;42.80
44894;DHT22;30625;52.206;21.030;2023-05-10T12:46:07;19.20;44.30
44894;DHT22;30625;52.206;21.030;2023-05-10T12:48:33;19.20;44.10
44894;DHT22;30625;52.206;21.030;2023-05-10T12:51:00;18.80;45.40
44894;DHT22;30625;52.206;21.030;2023-05-10T12:53:26;19.50;46.10
44894;DHT22;30625;52.206;21.030;2023-05-10T12:55:52;19.50;45.90
44894;DHT22;30625;52.206;21.030;2023-05-10T12:58:18;19.30;44.00
44894;DHT22;30625;52.206;21.030;2023-05-10T13:00:44;19.30;43.90
44894;DHT22;30625;52.206;21.030;2023-05-10T13:03:10;19.50;45.30
44894;DHT22;30625;52.206;21.030;2023-05-10T13:05:36;19.40;46.40
44894;DHT22;30625;52.206;21.030;2023-05-10T13:08:02;19.40;44.10
44894;DHT22;30625;52.206;21.030;2023-05-10T13:10:29;19.40;43.50
44894;DHT22;30625;52.206;21.030;2023-05-10T13:12:56;19.50;43.40
44894;DHT22;30625;52.206;21.030;2023-05-10T13:15:22;19.50;43.00
44894;DHT22;30625;52.206;21.030;2023-05-10T13:17:48;19.50;42.70
44894;DHT22;30625;52.206;21.030;2023-05-10T13:20:14;19.40;43.60
44894;DHT22;30625;52.206;21.030;2023-05-10T13:22:41;19.50;45.20
44894;DHT22;30625;52.206;21.030;2023-05-10T13:25:07;19.60;44.40
44894;DHT22;30625;52.206;21.030;2023-05-10T13:27:33;19.60;44.70
44894;DHT22;30625;52.206;21.030;2023-05-10T13:29:58;19.90;44.10
44894;DHT22;30625;52.206;21.030;2023-05-10T13:32:25;20.10;43.60
44894;DHT22;30625;52.206;21.030;2023-05-10T13:34:51;19.90;45.20
44894;DHT22;30625;52.206;21.030;2023-05-10T13:37:17;19.80;43.60
44894;DHT22;30625;52.206;21.030;2023-05-10T13:39:43;19.90;45.60
44894;DHT22;30625;52.206;21.030;2023-05-10T13:42:09;19.80;45.50
44894;DHT22;30625;52.206;21.030;2023-05-10T13:44:34;19.80;44.00
44894;DHT22;30625;52.206;21.030;2023-05-10T13:47:01;19.70;46.10
44894;DHT22;30625;52.206;21.030;2023-05-10T13:49:27;19.70;45.10
44894;DHT22;30625;52.206;21.030;2023-05-10T13:51:53;19.50;44.10
44894;DHT22;30625;52.206;21.030;2023-05-10T13:54:19;19.60;47.60
44894;DHT22;30625;52.206;21.030;2023-05-10T13:56:45;19.30;43.60
44894;DHT22;30625;52.206;21.030;2023-05-10T13:59:13;21.00;47.20
44894;DHT22;30625;52.206;21.030;2023-05-10T14:01:40;19.90;45.10
44894;DHT22;30625;52.206;21.030;2023-05-10T14:04:06;18.40;45.60
44894;DHT22;30625;52.206;21.030;2023-05-10T14:06:34;20.00;44.60
44894;DHT22;30625;52.206;21.030;2023-05-10T14:08:59;20.00;44.30
44894;DHT22;30625;52.206;21.030;2023-05-10T14:11:25;20.00;43.80
44894;DHT22;30625;52.206;21.030;2023-05-10T14:13:51;20.10;43.30
44894;DHT22;30625;52.206;21.030;2023-05-10T14:16:16;19.80;43.30
44894;DHT22;30625;52.206;21.030;2023-05-10T14:18:42;19.90;44.70
44894;DHT22;30625;52.206;21.030;2023-05-10T14:21:08;19.90;43.30
44894;DHT22;30625;52.206;21.030;2023-05-10T14:23:34;19.80;42.60
44894;DHT22;30625;52.206;21.030;2023-05-10T14:26:00;19.90;44.20
44894;DHT22;30625;52.206;21.030;2023-05-10T14:28:25;19.70;43.50
44894;DHT22;30625;52.206;21.030;2023-05-10T14:30:51;19.60;43.50
44894;DHT22;30625;52.206;21.030;2023-05-10T14:33:17;19.70;43.90
44894;DHT22;30625;52.206;21.030;2023-05-10T14:35:44;19.70;43.10
44894;DHT22;30625;52.206;21.030;2023-05-10T14:38:10;19.60;43.30
44894;DHT22;30625;52.206;21.030;2023-05-10T14:40:36;19.60;43.70
44894;DHT22;30625;52.206;21.030;2023-05-10T14:43:02;19.30;43.20
44894;DHT22;30625;52.206;21.030;2023-05-10T14:45:27;19.20;43.40
44894;DHT22;30625;52.206;21.030;2023-05-10T14:47:53;19.10;45.60
44894;DHT22;30625;52.206;21.030;2023-05-10T14:50:19;18.70;44.00
44894;DHT22;30625;52.206;21.030;2023-05-10T14:52:47;18.60;43.10
44894;DHT22;30625;52.206;21.030;2023-05-10T14:55:14;18.50;43.90
44894;DHT22;30625;52.206;21.030;2023-05-10T15:08:01;18.20;45.70
44894;DHT22;30625;52.206;21.030;2023-05-10T15:10:27;18.40;46.00
44894;DHT22;30625;52.206;21.030;2023-05-10T15:12:53;18.20;45.80
44894;DHT22;30625;52.206;21.030;2023-05-10T15:15:19;18.10;45.80
44894;DHT22;30625;52.206;21.030;2023-05-10T15:20:20;18.20;46.70
44894;DHT22;30625;52.206;21.030;2023-05-10T15:25:26;18.10;45.20
44894;DHT22;30625;52.206;21.030;2023-05-10T15:27:53;18.10;45.60
44894;DHT22;30625;52.206;21.030;2023-05-10T15:30:21;17.90;45.90
44894;DHT22;30625;52.206;21.030;2023-05-10T15:32:47;17.80;45.50
44894;DHT22;30625;52.206;21.030;2023-05-10T15:35:13;17.80;47.10
44894;DHT22;30625;52.206;21.030;2023-05-10T15:37:42;17.70;46.30
44894;DHT22;30625;52.206;21.030;2023-05-10T15:40:11;17.70;46.70
44894;DHT22;30625;52.206;21.030;2023-05-10T15:45:13;17.90;47.50
44894;DHT22;30625;52.206;21.030;2023-05-10T15:47:45;17.70;45.80
44894;DHT22;30625;52.206;21.030;2023-05-10T15:50:11;16.30;45.80
44894;DHT22;30625;52.206;21.030;2023-05-10T15:52:43;17.80;46.90
44894;DHT22;30625;52.206;21.030;2023-05-10T15:55:09;17.70;46.10
44894;DHT22;30625;52.206;21.030;2023-05-10T15:57:39;17.70;45.70
44894;DHT22;30625;52.206;21.030;2023-05-10T16:00:09;16.60;44.60
44894;DHT22;30625;52.206;21.030;2023-05-10T16:02:35;16.90;45.50
44894;DHT22;30625;52.206;21.030;2023-05-10T16:05:02;17.70;47.40
44894;DHT22;30625;52.206;21.030;2023-05-10T16:07:27;17.70;44.40
44894;DHT22;30625;52.206;21.030;2023-05-10T16:09:55;17.60;44.30
44894;DHT22;30625;52.206;21.030;2023-05-10T16:12:21;17.60;44.30
44894;DHT22;30625;52.206;21.030;2023-05-10T16:14:47;17.50;44.20
44894;DHT22;30625;52.206;21.030;2023-05-10T16:17:13;17.50;44.10